createdAt,value
2019-04-22T00:00:01.035Z,5.28
2019-04-22T00:01:35.061Z,5.53
2019-04-22T00:03:11.382Z,5.78
2019-04-22T00:04:56.191Z,5.00
2019-04-22T00:06:42.717Z,5.58
2019-04-22T00:08:19.714Z,4.42
2019-04-22T00:09:54.846Z,5.10
2019-04-22T00:11:39.564Z,4.83
2019-04-22T00:13:04.201Z,5.47
2019-04-22T00:14:28.315Z,5.87
2019-04-22T00:15:59.392Z,5.12
2019-04-22T00:17:55.138Z,5.15
2019-04-22T00:20:52.458Z,5.75
2019-04-22T00:23:57.897Z,5.67
2019-04-22T00:25:34.405Z,5.12
2019-04-22T00:27:06.984Z,5.42
2019-04-22T00:28:44.043Z,6.10
2019-04-22T00:30:16.472Z,5.67
2019-04-22T00:31:46.245Z,5.25
2019-04-22T00:33:21.302Z,5.67
2019-04-22T00:34:57.687Z,5.55
2019-04-22T00:36:27.544Z,5.35
2019-04-22T00:38:15.424Z,5.92
2019-04-22T00:39:44.788Z,5.55
2019-04-22T00:41:13.242Z,5.47
2019-04-22T00:42:47.727Z,5.60
2019-04-22T00:44:27.098Z,5.75
2019-04-22T00:45:48.128Z,5.00
2019-04-22T00:49:43.940Z,4.87
2019-04-22T00:51:33.729Z,6.05
2019-04-22T00:52:09.299Z,5.05
2019-04-22T00:54:01.036Z,5.33
2019-04-22T00:55:22.418Z,4.90
2019-04-22T00:56:48.115Z,5.15
2019-04-22T00:58:29.380Z,5.00
2019-04-22T00:59:58.596Z,5.58
2019-04-22T01:01:41.050Z,4.45
2019-04-22T01:03:10.991Z,5.28
2019-04-22T01:04:48.896Z,5.35
2019-04-22T01:06:20.415Z,5.25
2019-04-22T01:07:53.249Z,5.10
2019-04-22T01:09:25.002Z,4.47
2019-04-22T01:11:04.794Z,5.33
2019-04-22T01:12:37.441Z,5.20
2019-04-22T01:14:09.230Z,5.35
2019-04-22T01:15:45.082Z,5.10
2019-04-22T01:17:12.006Z,4.95
2019-04-22T01:18:51.870Z,4.53
2019-04-22T01:20:45.715Z,4.37
2019-04-22T01:21:58.593Z,4.93
2019-04-22T01:23:28.264Z,5.08
2019-04-22T01:25:02.437Z,4.65
2019-04-22T01:26:37.331Z,4.42
2019-04-22T01:28:10.222Z,4.37
2019-04-22T01:29:39.782Z,4.28
2019-04-22T01:31:04.780Z,4.80
2019-04-22T01:32:38.535Z,4.20
2019-04-22T01:34:23.220Z,4.33
2019-04-22T01:36:01.462Z,4.20
2019-04-22T01:37:36.038Z,3.97
2019-04-22T01:39:13.485Z,4.50
2019-04-22T01:40:58.641Z,4.27
2019-04-22T01:42:16.804Z,4.00
2019-04-22T01:44:09.754Z,4.10
2019-04-22T01:45:36.283Z,4.60
2019-04-22T01:47:04.910Z,4.25
2019-04-22T01:48:40.125Z,4.20
2019-04-22T01:50:12.331Z,4.27
2019-04-22T01:52:01.858Z,4.17
2019-04-22T01:53:24.572Z,5.15
2019-04-22T01:54:55.642Z,4.70
2019-04-22T01:56:37.946Z,4.53
2019-04-22T01:57:59.540Z,5.10
2019-04-22T01:59:31.732Z,4.58
2019-04-22T02:01:13.601Z,4.12
2019-04-22T02:02:49.237Z,4.40
2019-04-22T02:04:26.933Z,4.47
2019-04-22T02:05:52.155Z,4.27
2019-04-22T02:07:32.356Z,4.83
2019-04-22T02:09:14.056Z,4.30
2019-04-22T02:10:39.218Z,4.22
2019-04-22T02:12:16.688Z,4.10
2019-04-22T02:13:49.486Z,4.28
2019-04-22T02:15:19.684Z,4.57
2019-04-22T02:16:55.784Z,5.13
2019-04-22T02:18:33.946Z,3.95
2019-04-22T02:20:04.054Z,4.25
2019-04-22T02:21:38.208Z,4.37
2019-04-22T02:23:30.319Z,3.92
2019-04-22T02:24:46.842Z,3.97
2019-04-22T02:26:31.424Z,4.10
2019-04-22T02:27:54.563Z,4.70
2019-04-22T02:29:32.846Z,4.43
2019-04-22T02:31:23.101Z,3.87
2019-04-22T02:32:48.534Z,4.47
2019-04-22T02:37:21.066Z,4.57
2019-04-22T02:40:38.951Z,4.50
2019-04-22T02:42:03.038Z,4.77
2019-04-22T02:45:07.163Z,4.00
2019-04-22T02:48:33.884Z,4.03
2019-04-22T02:50:01.801Z,4.70
2019-04-22T02:53:00.948Z,4.20
2019-04-22T02:57:39.305Z,4.60
2019-04-22T02:59:14.424Z,4.13
2019-04-22T03:00:56.797Z,4.17
2019-04-22T03:02:38.198Z,4.00
2019-04-22T03:05:56.693Z,4.40
2019-04-22T03:07:03.767Z,4.28
2019-04-22T03:08:47.513Z,4.13
2019-04-22T03:10:29.362Z,4.40
2019-04-22T03:13:47.306Z,3.93
2019-04-22T03:14:53.322Z,4.50
2019-04-22T03:18:19.524Z,4.33
2019-04-22T03:19:50.621Z,5.00
2019-04-22T03:22:55.139Z,3.93
2019-04-22T03:24:27.827Z,4.30
2019-04-22T03:26:23.250Z,4.33
2019-04-22T03:27:30.111Z,4.13
2019-04-22T03:29:18.186Z,4.00
2019-04-22T03:30:53.528Z,4.20
2019-04-22T03:32:39.545Z,4.30
2019-04-22T03:34:30.104Z,4.07
2019-04-22T03:35:37.072Z,4.87
2019-04-22T03:37:23.744Z,4.13
2019-04-22T03:38:43.470Z,4.20
2019-04-22T03:43:15.716Z,4.73
2019-04-22T03:45:01.210Z,4.13
2019-04-22T03:46:30.392Z,4.73
2019-04-22T03:48:01.905Z,4.70
2019-04-22T03:49:39.278Z,4.97
2019-04-22T03:51:11.873Z,4.60
2019-04-22T03:52:39.128Z,4.20
2019-04-22T03:54:32.451Z,4.77
2019-04-22T03:55:49.049Z,4.07
2019-04-22T03:57:44.747Z,4.10
2019-04-22T03:58:58.626Z,4.40
2019-04-22T04:03:40.186Z,4.80
2019-04-22T04:05:22.201Z,4.47
2019-04-22T04:06:59.245Z,3.77
2019-04-22T04:08:33.509Z,4.13
2019-04-22T04:09:58.246Z,4.30
2019-04-22T04:11:40.821Z,4.50
2019-04-22T04:13:08.612Z,4.37
2019-04-22T04:16:16.807Z,4.47
2019-04-22T04:17:53.851Z,4.10
2019-04-22T04:19:31.496Z,4.20
2019-04-22T04:21:09.256Z,4.30
2019-04-22T04:24:17.220Z,4.37
2019-04-22T04:27:41.366Z,4.40
2019-04-22T04:33:35.806Z,4.80
2019-04-22T04:35:19.431Z,4.27
2019-04-22T04:36:34.190Z,4.60
2019-04-22T04:38:08.190Z,4.17
2019-04-22T04:39:55.503Z,3.90
2019-04-22T04:41:30.823Z,4.30
2019-04-22T04:42:56.648Z,4.77
2019-04-22T04:44:49.160Z,4.93
2019-04-22T04:49:26.083Z,4.00
2019-04-22T04:50:51.017Z,4.87
2019-04-22T04:54:01.203Z,4.87
2019-04-22T05:00:39.474Z,4.20
2019-04-22T05:01:45.075Z,4.67
2019-04-22T05:03:20.662Z,4.50
2019-04-22T05:05:06.823Z,4.10
2019-04-22T05:08:32.979Z,4.57
2019-04-22T05:09:26.173Z,4.37
2019-04-22T05:11:05.841Z,4.67
2019-04-22T05:12:53.485Z,4.43
2019-04-22T05:16:04.947Z,4.90
2019-04-22T05:17:25.476Z,4.90
2019-04-22T05:23:39.451Z,4.60
2019-04-22T05:25:15.090Z,4.47
2019-04-22T05:28:19.892Z,4.57
2019-04-22T05:30:07.551Z,4.50
2019-04-22T05:31:33.928Z,4.87
2019-04-22T05:32:58.819Z,4.53
2019-04-22T05:34:37.961Z,4.97
2019-04-22T05:36:07.444Z,5.20
2019-04-22T05:37:45.847Z,4.87
2019-04-22T05:40:54.679Z,4.63
2019-04-22T05:42:26.897Z,4.83
2019-04-22T05:43:58.122Z,4.87
2019-04-22T05:45:43.262Z,4.60
2019-04-22T05:47:08.035Z,4.57
2019-04-22T05:48:51.078Z,4.60
2019-04-22T05:50:18.944Z,4.90
2019-04-22T05:51:48.437Z,4.37
2019-04-22T05:53:25.753Z,4.97
2019-04-22T05:55:02.888Z,5.53
2019-04-22T05:56:37.089Z,4.53
2019-04-22T05:58:12.348Z,4.33
2019-04-22T05:59:48.778Z,4.60
2019-04-22T06:04:25.696Z,4.53
2019-04-22T06:05:55.340Z,4.53
2019-04-22T06:07:32.332Z,4.20
2019-04-22T06:09:10.553Z,4.50
2019-04-22T06:10:48.580Z,4.93
2019-04-22T06:12:12.544Z,4.50
2019-04-22T06:13:53.379Z,3.93
2019-04-22T06:15:28.803Z,4.27
2019-04-22T06:18:38.588Z,4.13
2019-04-22T06:20:33.917Z,4.10
2019-04-22T06:22:25.384Z,4.20
2019-04-22T06:27:41.665Z,4.90
2019-04-22T06:29:23.816Z,4.53
2019-04-22T06:30:57.447Z,5.33
2019-04-22T06:34:13.241Z,4.80
2019-04-22T06:37:13.187Z,5.00
2019-04-22T06:38:59.813Z,4.83
2019-04-22T06:40:24.825Z,4.60
2019-04-22T06:41:53.447Z,4.83
2019-04-22T06:43:29.137Z,4.90
2019-04-22T06:47:00.132Z,3.93
2019-04-22T06:48:52.747Z,5.03
2019-04-22T06:50:31.452Z,4.50
2019-04-22T06:51:46.777Z,4.03
2019-04-22T06:53:16.858Z,4.43
2019-04-22T06:54:54.318Z,4.47
2019-04-22T06:56:22.045Z,4.77
2019-04-22T06:57:59.267Z,4.57
2019-04-22T06:59:40.671Z,4.20
2019-04-22T07:01:09.496Z,4.67
2019-04-22T07:02:56.084Z,4.37
2019-04-22T07:04:16.753Z,4.10
2019-04-22T07:05:51.810Z,4.40
2019-04-22T07:07:24.034Z,4.30
2019-04-22T07:09:20.624Z,4.97
2019-04-22T07:12:11.555Z,4.60
2019-04-22T07:14:01.890Z,4.40
2019-04-22T07:15:38.360Z,4.58
2019-04-22T07:16:54.468Z,4.50
2019-04-22T07:18:33.390Z,3.92
2019-04-22T07:20:04.333Z,4.70
2019-04-22T07:21:57.902Z,4.17
2019-04-22T07:23:37.512Z,4.20
2019-04-22T07:24:55.980Z,4.10
2019-04-22T07:26:24.184Z,4.30
2019-04-22T07:28:05.173Z,4.20
2019-04-22T07:29:46.696Z,3.80
2019-04-22T07:35:04.117Z,3.98
2019-04-22T07:38:10.792Z,4.20
2019-04-22T07:39:39.284Z,4.08
2019-04-22T07:41:14.631Z,4.20
2019-04-22T07:42:48.161Z,4.47
2019-04-22T07:45:54.943Z,4.12
2019-04-22T07:49:10.599Z,3.98
2019-04-22T07:52:21.174Z,3.90
2019-04-22T07:53:57.465Z,4.00
2019-04-22T07:55:26.937Z,3.72
2019-04-22T07:57:11.743Z,3.47
2019-04-22T07:58:39.628Z,3.52
2019-04-22T08:00:16.005Z,3.33
2019-04-22T08:01:44.016Z,3.70
2019-04-22T08:03:16.626Z,3.52
2019-04-22T08:06:26.169Z,3.15
2019-04-22T08:08:11.156Z,3.42
2019-04-22T08:09:37.354Z,3.20
2019-04-22T08:11:24.530Z,3.75
2019-04-22T08:12:47.397Z,3.58
2019-04-22T08:14:24.538Z,3.30
2019-04-22T08:15:58.210Z,3.12
2019-04-22T08:19:09.066Z,2.95
2019-04-22T08:20:41.020Z,3.30
2019-04-22T08:22:07.667Z,3.08
2019-04-22T08:23:50.848Z,3.50
2019-04-22T08:25:18.127Z,3.30
2019-04-22T08:27:04.532Z,3.27
2019-04-22T08:28:41.219Z,3.30
2019-04-22T08:30:28.932Z,3.77
2019-04-22T08:31:48.807Z,3.50
2019-04-22T08:33:21.641Z,3.17
2019-04-22T08:34:52.878Z,3.42
2019-04-22T08:36:28.230Z,3.20
2019-04-22T08:38:02.553Z,3.40
2019-04-22T08:39:32.744Z,3.40
2019-04-22T08:41:19.608Z,3.45
2019-04-22T08:42:53.098Z,3.70
2019-04-22T08:44:17.374Z,3.50
2019-04-22T08:45:54.540Z,3.25
2019-04-22T08:47:33.028Z,3.58
2019-04-22T08:49:00.717Z,3.75
2019-04-22T08:50:41.318Z,3.70
2019-04-22T08:53:51.887Z,3.40
2019-04-22T08:55:26.057Z,3.60
2019-04-22T08:58:37.565Z,3.33
2019-04-22T09:00:02.393Z,3.52
2019-04-22T09:01:35.962Z,3.35
2019-04-22T09:03:12.297Z,3.72
2019-04-22T09:04:44.124Z,3.50
2019-04-22T09:06:34.165Z,3.45
2019-04-22T09:07:52.724Z,3.50
2019-04-22T09:09:32.812Z,3.30
2019-04-22T09:11:11.824Z,3.17
2019-04-22T09:12:53.310Z,2.83
2019-04-22T09:14:15.952Z,2.98
2019-04-22T09:15:48.772Z,3.27
2019-04-22T09:17:36.306Z,3.30
2019-04-22T09:18:59.755Z,3.10
2019-04-22T09:20:32.693Z,3.40
2019-04-22T09:23:44.458Z,3.20
2019-04-22T09:25:21.198Z,3.10
2019-04-22T09:26:54.265Z,3.55
2019-04-22T09:28:31.180Z,3.20
2019-04-22T09:30:10.312Z,3.30
2019-04-22T09:31:37.505Z,3.77
2019-04-22T09:33:14.174Z,3.50
2019-04-22T09:34:50.327Z,3.22
2019-04-22T09:36:22.679Z,3.33
2019-04-22T09:37:59.772Z,2.85
2019-04-22T09:39:32.581Z,3.58
2019-04-22T09:41:00.919Z,3.17
2019-04-22T09:42:39.772Z,3.27
2019-04-22T09:44:07.870Z,3.37
2019-04-22T09:45:43.921Z,3.35
2019-04-22T09:47:19.177Z,3.17
2019-04-22T09:49:02.674Z,3.08
2019-04-22T09:50:32.090Z,3.08
2019-04-22T09:52:08.467Z,3.00
2019-04-22T09:53:43.501Z,3.02
2019-04-22T09:56:47.054Z,2.83
2019-04-22T09:58:16.276Z,2.83
2019-04-22T09:59:57.469Z,3.40
2019-04-22T10:03:04.607Z,2.80
2019-04-22T10:04:33.017Z,3.02
2019-04-22T10:06:16.681Z,3.08
2019-04-22T10:07:42.314Z,2.67
2019-04-22T10:09:34.433Z,2.90
2019-04-22T10:10:57.996Z,2.80
2019-04-22T10:12:25.299Z,3.62
2019-04-22T10:14:17.037Z,2.83
2019-04-22T10:15:33.296Z,3.10
2019-04-22T10:17:06.719Z,3.15
2019-04-22T10:18:39.155Z,2.87
2019-04-22T10:20:17.850Z,3.00
2019-04-22T10:21:49.960Z,3.62
2019-04-22T10:23:25.427Z,3.80
2019-04-22T10:25:01.891Z,3.58
2019-04-22T10:26:37.265Z,3.27
2019-04-22T10:28:11.535Z,3.30
2019-04-22T10:29:47.408Z,3.60
2019-04-22T10:31:21.603Z,3.10
2019-04-22T10:32:47.977Z,3.58
2019-04-22T10:34:14.725Z,3.90
2019-04-22T10:35:34.567Z,3.50
2019-04-22T10:37:11.821Z,3.10
2019-04-22T10:38:42.244Z,3.00
2019-04-22T10:40:15.816Z,3.10
2019-04-22T10:41:48.677Z,3.10
2019-04-22T10:43:21.230Z,2.92
2019-04-22T10:44:54.322Z,2.90
2019-04-22T10:46:28.310Z,2.70
2019-04-22T10:48:03.899Z,3.55
2019-04-22T10:49:36.444Z,3.20
2019-04-22T10:51:09.024Z,3.12
2019-04-22T10:52:41.611Z,3.08
2019-04-22T10:54:13.967Z,3.15
2019-04-22T10:55:47.729Z,3.30
2019-04-22T10:57:23.536Z,3.27
2019-04-22T10:58:56.270Z,3.33
2019-04-22T11:00:31.667Z,2.98
2019-04-22T11:02:05.544Z,2.60
2019-04-22T11:03:39.534Z,3.30
2019-04-22T11:05:12.388Z,3.37
2019-04-22T11:06:53.065Z,3.05
2019-04-22T11:08:27.162Z,3.25
2019-04-22T11:10:01.118Z,3.10
2019-04-22T11:11:41.523Z,3.00
2019-04-22T11:13:01.138Z,3.17
2019-04-22T11:14:34.810Z,3.00
2019-04-22T11:16:09.492Z,3.40
2019-04-22T11:17:43.829Z,3.52
2019-04-22T11:19:17.340Z,3.62
2019-04-22T11:20:51.699Z,3.62
2019-04-22T11:22:28.454Z,3.70
2019-04-22T11:23:58.733Z,3.10
2019-04-22T11:25:31.920Z,3.35
2019-04-22T11:27:05.299Z,3.40
2019-04-22T11:28:39.378Z,3.25
2019-04-22T11:30:13.384Z,3.47
2019-04-22T11:31:46.463Z,2.80
2019-04-22T11:33:20.465Z,3.60
2019-04-22T11:34:53.905Z,3.02
2019-04-22T11:36:30.112Z,3.00
2019-04-22T11:38:01.141Z,3.40
2019-04-22T11:39:40.604Z,3.30
2019-04-22T11:41:10.783Z,3.20
2019-04-22T11:42:43.897Z,3.00
2019-04-22T11:44:17.143Z,3.80
2019-04-22T11:45:50.888Z,3.05
2019-04-22T11:47:23.755Z,3.27
2019-04-22T11:48:56.232Z,3.33
2019-04-22T11:50:33.548Z,3.30
2019-04-22T11:52:08.366Z,3.60
2019-04-22T11:53:40.942Z,3.05
2019-04-22T11:55:14.832Z,2.77
2019-04-22T11:56:47.498Z,2.92
2019-04-22T11:58:21.068Z,2.60
2019-04-22T11:59:54.696Z,3.50
2019-04-22T12:01:28.634Z,3.80
2019-04-22T12:03:03.050Z,3.72
2019-04-22T12:04:35.942Z,3.30
2019-04-22T12:06:10.281Z,3.45
2019-04-22T12:07:43.028Z,2.92
2019-04-22T12:09:15.523Z,3.02
2019-04-22T12:10:53.187Z,2.95
2019-04-22T12:12:23.530Z,2.98
2019-04-22T12:13:56.174Z,3.25
2019-04-22T12:15:28.907Z,3.08
2019-04-22T12:17:01.686Z,3.20
2019-04-22T12:18:35.395Z,2.92
2019-04-22T12:20:10.479Z,3.50
2019-04-22T12:21:41.998Z,3.40
2019-04-22T12:23:14.804Z,3.58
2019-04-22T12:24:48.185Z,3.60
2019-04-22T12:26:22.690Z,3.20
2019-04-22T12:27:55.182Z,2.90
2019-04-22T12:29:28.934Z,2.75
2019-04-22T12:31:01.754Z,2.77
2019-04-22T12:32:35.685Z,2.80
2019-04-22T12:34:27.105Z,2.95
2019-04-22T12:36:00.402Z,3.20
2019-04-22T12:37:40.526Z,2.85
2019-04-22T12:39:09.437Z,2.87
2019-04-22T12:40:49.592Z,2.72
2019-04-22T12:42:15.406Z,3.17
2019-04-22T12:43:49.210Z,3.50
2019-04-22T12:45:22.401Z,3.27
2019-04-22T12:46:56.293Z,3.05
2019-04-22T12:48:29.188Z,3.55
2019-04-22T12:50:10.350Z,3.20
2019-04-22T12:51:36.732Z,2.90
2019-04-22T12:53:13.928Z,2.90
2019-04-22T12:54:44.628Z,3.00
2019-04-22T12:56:17.611Z,3.00
2019-04-22T12:57:53.437Z,2.87
2019-04-22T12:59:25.251Z,2.92
2019-04-22T13:00:58.957Z,2.90
2019-04-22T13:02:31.484Z,2.85
2019-04-22T13:04:09.400Z,3.12
2019-04-22T13:05:37.969Z,2.85
2019-04-22T13:07:11.552Z,3.00
2019-04-22T13:08:45.572Z,2.67
2019-04-22T13:10:19.940Z,3.00
2019-04-22T13:11:52.981Z,2.75
2019-04-22T13:13:27.062Z,2.70
2019-04-22T13:15:01.097Z,2.47
2019-04-22T13:16:35.420Z,2.92
2019-04-22T13:18:17.030Z,2.50
2019-04-22T13:19:42.623Z,2.95
2019-04-22T13:21:15.059Z,2.72
2019-04-22T13:22:48.687Z,2.33
2019-04-22T13:24:21.825Z,3.15
2019-04-22T13:25:54.812Z,2.85
2019-04-22T13:27:29.078Z,2.92
2019-04-22T13:29:03.372Z,3.10
2019-04-22T13:30:36.892Z,2.62
2019-04-22T13:32:10.893Z,2.62
2019-04-22T13:33:44.186Z,2.70
2019-04-22T13:35:19.951Z,2.72
2019-04-22T13:36:54.546Z,2.95
2019-04-22T13:38:27.048Z,2.80
2019-04-22T13:40:01.424Z,2.58
2019-04-22T13:41:41.774Z,2.42
2019-04-22T13:43:09.135Z,2.67
2019-04-22T13:44:41.865Z,2.33
2019-04-22T13:46:14.510Z,3.05
2019-04-22T13:48:06.346Z,2.70
2019-04-22T13:50:03.226Z,2.65
2019-04-22T13:51:30.159Z,2.62
2019-04-22T13:53:28.951Z,2.85
2019-04-22T13:56:04.941Z,3.00
2019-04-22T13:57:32.558Z,2.77
2019-04-22T13:59:04.640Z,2.87
2019-04-22T14:00:24.903Z,2.62
2019-04-22T14:01:58.787Z,2.80
2019-04-22T14:03:34.301Z,2.90
2019-04-22T14:05:06.522Z,3.20
2019-04-22T14:06:39.039Z,3.30
2019-04-22T14:08:12.649Z,3.10
2019-04-22T14:09:46.528Z,2.90
2019-04-22T14:11:28.652Z,2.98
2019-04-22T14:12:53.300Z,2.83
2019-04-22T14:14:26.005Z,2.98
2019-04-22T14:15:59.437Z,2.87
2019-04-22T14:17:32.239Z,2.70
2019-04-22T14:19:05.679Z,3.30
2019-04-22T14:20:38.859Z,2.97
2019-04-22T14:22:11.768Z,3.30
2019-04-22T14:23:44.681Z,2.75
2019-04-22T14:25:18.689Z,2.90
2019-04-22T14:27:08.837Z,3.00
2019-04-22T14:28:27.269Z,2.77
2019-04-22T14:29:59.952Z,3.00
2019-04-22T14:31:32.853Z,3.42
2019-04-22T14:33:06.800Z,3.25
2019-04-22T14:34:39.387Z,3.22
2019-04-22T14:36:11.827Z,3.30
2019-04-22T14:37:45.741Z,3.45
2019-04-22T14:39:19.762Z,3.40
2019-04-22T14:40:54.423Z,3.00
2019-04-22T14:42:44.321Z,2.90
2019-04-22T14:45:05.384Z,3.00
2019-04-22T14:47:34.910Z,3.58
2019-04-22T14:49:06.751Z,3.00
2019-04-22T14:50:43.826Z,2.90
2019-04-22T14:52:15.404Z,3.30
2019-04-22T14:53:47.334Z,3.08
2019-04-22T14:55:10.130Z,2.65
2019-04-22T14:56:36.192Z,3.40
2019-04-22T14:58:11.013Z,2.95
2019-04-22T14:59:44.039Z,3.08
2019-04-22T15:01:17.017Z,3.08
2019-04-22T15:02:49.880Z,2.98
2019-04-22T15:04:28.939Z,3.08
2019-04-22T15:06:06.222Z,3.08
2019-04-22T15:07:39.416Z,3.05
2019-04-22T15:09:21.994Z,2.72
2019-04-22T15:10:54.062Z,3.40
2019-04-22T15:12:36.680Z,3.27
2019-04-22T15:14:03.387Z,3.37
2019-04-22T15:15:42.061Z,3.30
2019-04-22T15:17:10.988Z,2.60
2019-04-22T15:18:45.957Z,3.05
2019-04-22T15:20:19.627Z,3.00
2019-04-22T15:21:56.519Z,3.08
2019-04-22T15:23:28.673Z,3.20
2019-04-22T15:25:02.850Z,3.15
2019-04-22T15:26:35.568Z,3.00
2019-04-22T15:28:09.086Z,2.90
2019-04-22T15:29:43.153Z,3.12
2019-04-22T15:31:17.613Z,3.35
2019-04-22T15:32:51.493Z,2.80
2019-04-22T15:34:24.978Z,2.80
2019-04-22T15:35:58.966Z,2.83
2019-04-22T15:37:35.233Z,3.00
2019-04-22T15:39:11.283Z,2.70
2019-04-22T15:40:48.699Z,3.20
2019-04-22T15:42:28.728Z,2.80
2019-04-22T15:44:03.830Z,2.80
2019-04-22T15:45:36.829Z,3.05
2019-04-22T15:47:09.384Z,2.95
2019-04-22T15:48:42.130Z,2.80
2019-04-22T15:50:16.093Z,2.80
2019-04-22T15:51:49.060Z,2.75
2019-04-22T15:53:22.046Z,2.80
2019-04-22T15:54:54.684Z,2.77
2019-04-22T15:56:28.469Z,2.80
2019-04-22T15:58:03.698Z,2.98
2019-04-22T15:59:52.184Z,2.92
2019-04-22T16:01:17.807Z,3.05
2019-04-22T16:02:43.824Z,3.05
2019-04-22T16:04:16.988Z,3.00
2019-04-22T16:05:50.310Z,2.83
2019-04-22T16:07:25.950Z,2.98
2019-04-22T16:08:59.874Z,3.22
2019-04-22T16:10:31.601Z,2.95
2019-04-22T16:12:15.243Z,2.90
2019-04-22T16:13:42.270Z,3.27
2019-04-22T16:15:16.189Z,2.50
2019-04-22T16:16:48.684Z,3.25
2019-04-22T16:18:22.503Z,2.92
2019-04-22T16:19:59.399Z,3.10
2019-04-22T16:21:40.532Z,2.70
2019-04-22T16:23:07.642Z,2.85
2019-04-22T16:24:40.549Z,3.08
2019-04-22T16:26:13.566Z,3.00
2019-04-22T16:27:50.162Z,2.90
2019-04-22T16:29:23.311Z,3.27
2019-04-22T16:30:57.517Z,2.75
2019-04-22T16:32:31.804Z,2.95
2019-04-22T16:34:04.894Z,2.45
2019-04-22T16:35:38.715Z,2.62
2019-04-22T16:37:12.468Z,2.62
2019-04-22T16:38:45.542Z,2.87
2019-04-22T16:40:19.186Z,2.83
2019-04-22T16:41:52.819Z,3.00
2019-04-22T16:43:26.565Z,3.10
2019-04-22T16:44:59.621Z,2.30
2019-04-22T16:46:32.195Z,3.55
2019-04-22T16:48:04.807Z,3.05
2019-04-22T16:49:37.391Z,2.75
2019-04-22T16:51:11.782Z,2.98
2019-04-22T16:52:50.013Z,2.83
2019-04-22T16:54:24.476Z,2.90
2019-04-22T16:55:59.076Z,2.83
2019-04-22T16:57:35.841Z,2.58
2019-04-22T16:59:08.814Z,2.95
2019-04-22T17:00:42.642Z,3.08
2019-04-22T17:02:16.705Z,2.75
2019-04-22T17:03:49.228Z,2.80
2019-04-22T17:05:21.645Z,2.70
2019-04-22T17:06:55.388Z,2.70
2019-04-22T17:08:28.571Z,2.67
2019-04-22T17:10:01.914Z,2.58
2019-04-22T17:11:35.871Z,2.27
2019-04-22T17:13:13.677Z,2.62
2019-04-22T17:14:50.499Z,2.70
2019-04-22T17:16:18.034Z,2.80
2019-04-22T17:17:51.633Z,2.70
2019-04-22T17:19:24.577Z,2.67
2019-04-22T17:20:58.363Z,2.67
2019-04-22T17:22:31.400Z,2.72
2019-04-22T17:24:05.489Z,2.47
2019-04-22T17:25:38.446Z,2.30
2019-04-22T17:27:10.880Z,2.50
2019-04-22T17:28:43.828Z,3.00
2019-04-22T17:30:16.709Z,2.70
2019-04-22T17:31:57.081Z,2.50
2019-04-22T17:33:23.379Z,2.65
2019-04-22T17:34:57.272Z,2.87
2019-04-22T17:36:29.948Z,2.77
2019-04-22T17:38:15.344Z,2.80
2019-04-22T17:39:47.697Z,2.67
2019-04-22T17:41:22.151Z,2.80
2019-04-22T17:43:02.680Z,2.50
2019-04-22T17:44:42.355Z,2.65
2019-04-22T17:46:10.728Z,2.77
2019-04-22T17:47:41.022Z,2.92
2019-04-22T17:49:30.334Z,2.90
2019-04-22T17:51:00.016Z,2.80
2019-04-22T17:52:30.542Z,2.52
2019-04-22T17:54:12.883Z,2.72
2019-04-22T17:55:44.011Z,3.10
2019-04-22T17:57:13.967Z,2.35
2019-04-22T17:58:51.216Z,2.42
2019-04-22T18:00:21.714Z,2.60
2019-04-22T18:01:53.993Z,2.72
2019-04-22T18:03:22.775Z,2.62
2019-04-22T18:04:52.029Z,2.70
2019-04-22T18:06:45.333Z,2.80
2019-04-22T18:08:13.873Z,2.35
2019-04-22T18:11:30.546Z,2.65
2019-04-22T18:13:00.080Z,2.25
2019-04-22T18:16:05.286Z,2.62
2019-04-22T18:17:41.027Z,2.60
2019-04-22T18:19:10.097Z,2.40
2019-04-22T18:20:41.079Z,2.47
2019-04-22T18:22:12.302Z,2.50
2019-04-22T18:23:47.456Z,2.45
2019-04-22T18:25:20.375Z,2.50
2019-04-22T18:27:15.883Z,3.17
2019-04-22T18:28:42.360Z,2.70
2019-04-22T18:30:04.071Z,2.50
2019-04-22T18:31:37.226Z,2.40
2019-04-22T18:33:19.068Z,2.58
2019-04-22T18:34:45.673Z,2.70
2019-04-22T18:36:23.811Z,2.50
2019-04-22T18:38:03.275Z,2.40
2019-04-22T18:39:44.310Z,2.55
2019-04-22T18:41:07.275Z,2.65
2019-04-22T18:42:45.780Z,2.90
2019-04-22T18:44:25.086Z,2.70
2019-04-22T18:45:54.625Z,3.00
2019-04-22T18:47:23.785Z,3.15
2019-04-22T18:49:00.693Z,2.77
2019-04-22T18:50:41.538Z,3.12
2019-04-22T18:52:10.440Z,3.20
2019-04-22T18:53:52.578Z,2.87
2019-04-22T18:55:14.636Z,2.80
2019-04-22T18:56:46.511Z,2.60
2019-04-22T18:58:21.292Z,2.75
2019-04-22T18:59:44.700Z,2.70
2019-04-22T19:01:12.566Z,2.77
2019-04-22T19:02:54.217Z,2.75
2019-04-22T19:04:27.160Z,2.90
2019-04-22T19:06:27.937Z,2.70
2019-04-22T19:07:49.996Z,3.15
2019-04-22T19:09:29.605Z,3.00
2019-04-22T19:12:41.902Z,3.25
2019-04-22T19:14:10.181Z,3.42
2019-04-22T19:15:47.173Z,2.67
2019-04-22T19:17:27.198Z,3.20
2019-04-22T19:19:05.286Z,2.47
2019-04-22T19:20:32.944Z,2.90
2019-04-22T19:21:57.813Z,2.95
2019-04-22T19:23:31.948Z,2.67
2019-04-22T19:25:05.978Z,2.83
2019-04-22T19:26:59.060Z,2.70
2019-04-22T19:28:23.858Z,2.70
2019-04-22T19:29:57.806Z,3.08
2019-04-22T19:31:43.481Z,2.90
2019-04-22T19:33:05.855Z,3.20
2019-04-22T19:34:31.996Z,2.70
2019-04-22T19:36:13.047Z,3.50
2019-04-22T19:37:37.846Z,2.60
2019-04-22T19:39:14.080Z,2.98
2019-04-22T19:41:00.913Z,3.05
2019-04-22T19:42:31.011Z,3.10
2019-04-22T19:44:04.108Z,3.80
2019-04-22T19:45:32.698Z,3.33
2019-04-22T19:48:45.122Z,3.25
2019-04-22T19:50:23.100Z,3.20
2019-04-22T19:52:02.526Z,2.95
2019-04-22T19:53:32.251Z,3.35
2019-04-22T19:55:01.912Z,3.42
2019-04-22T19:56:28.281Z,3.27
2019-04-22T19:58:01.658Z,3.55
2019-04-22T19:59:32.351Z,3.10
2019-04-22T20:01:14.964Z,3.47
2019-04-22T20:02:51.370Z,3.45
2019-04-22T20:04:28.255Z,3.17
2019-04-22T20:06:04.386Z,2.92
2019-04-22T20:07:27.801Z,3.70
2019-04-22T20:09:09.122Z,3.00
2019-04-22T20:10:41.336Z,3.80
2019-04-22T20:12:11.877Z,3.50
2019-04-22T20:13:47.696Z,3.52
2019-04-22T20:15:18.825Z,3.22
2019-04-22T20:16:48.987Z,3.20
2019-04-22T20:20:07.940Z,3.20
2019-04-22T20:21:41.487Z,3.17
2019-04-22T20:23:09.913Z,3.62
2019-04-22T20:24:34.040Z,3.58
2019-04-22T20:26:15.971Z,3.80
2019-04-22T20:27:54.778Z,3.75
2019-04-22T20:29:35.097Z,3.77
2019-04-22T20:31:02.684Z,3.45
2019-04-22T20:32:39.091Z,3.40
2019-04-22T20:34:17.349Z,3.70
2019-04-22T20:35:43.661Z,4.08
2019-04-22T20:37:22.554Z,3.65
2019-04-22T20:38:50.648Z,3.25
2019-04-22T20:40:31.878Z,3.85
2019-04-22T20:42:16.460Z,3.55
2019-04-22T20:43:44.766Z,3.87
2019-04-22T20:45:13.130Z,3.40
2019-04-22T20:46:47.503Z,3.92
2019-04-22T20:48:07.903Z,4.33
2019-04-22T20:49:54.636Z,3.85
2019-04-22T20:51:35.373Z,3.77
2019-04-22T20:53:08.632Z,3.40
2019-04-22T20:54:39.026Z,3.90
2019-04-22T20:56:11.207Z,3.80
2019-04-22T20:57:49.767Z,3.60
2019-04-22T20:59:18.074Z,3.98
2019-04-22T21:00:40.297Z,3.95
2019-04-22T21:02:19.327Z,3.90
2019-04-22T21:03:46.883Z,4.12
2019-04-22T21:05:23.389Z,3.85
2019-04-22T21:07:03.098Z,3.80
2019-04-22T21:08:42.232Z,4.08
2019-04-22T21:10:11.527Z,3.98
2019-04-22T21:11:48.277Z,4.30
2019-04-22T21:13:20.758Z,4.17
2019-04-22T21:15:00.208Z,4.17
2019-04-22T21:16:34.655Z,3.60
2019-04-22T21:18:05.784Z,3.90
2019-04-22T21:19:49.758Z,3.98
2019-04-22T21:21:20.287Z,4.28
2019-04-22T21:22:51.116Z,3.87
2019-04-22T21:24:25.077Z,3.98
2019-04-22T21:25:59.909Z,3.90
2019-04-22T21:27:37.072Z,3.80
2019-04-22T21:29:03.384Z,4.17
2019-04-22T21:30:37.604Z,3.87
2019-04-22T21:32:15.654Z,3.55
2019-04-22T21:33:48.774Z,3.77
2019-04-22T21:35:31.922Z,4.05
2019-04-22T21:37:06.142Z,3.60
2019-04-22T21:38:32.491Z,4.00
2019-04-22T21:39:58.748Z,4.17
2019-04-22T21:41:39.131Z,4.05
2019-04-22T21:43:18.622Z,3.87
2019-04-22T21:44:47.702Z,3.87
2019-04-22T21:46:30.931Z,4.55
2019-04-22T21:48:13.788Z,3.58
2019-04-22T21:49:35.878Z,4.05
2019-04-22T21:51:10.915Z,3.85
2019-04-22T21:52:51.405Z,3.92
2019-04-22T21:54:22.462Z,3.87
2019-04-22T21:56:00.040Z,4.10
2019-04-22T21:57:27.775Z,3.87
2019-04-22T21:59:01.874Z,3.75
2019-04-22T22:00:43.279Z,3.80
2019-04-22T22:02:09.734Z,3.95
2019-04-22T22:03:45.727Z,3.80
2019-04-22T22:05:12.556Z,3.75
2019-04-22T22:06:42.467Z,4.00
2019-04-22T22:08:28.656Z,3.85
2019-04-22T22:09:59.522Z,4.20
2019-04-22T22:11:35.724Z,3.70
2019-04-22T22:13:10.842Z,4.22
2019-04-22T22:14:44.003Z,4.30
2019-04-22T22:16:14.705Z,4.22
2019-04-22T22:17:51.189Z,4.33
2019-04-22T22:19:28.551Z,3.90
2019-04-22T22:21:19.412Z,4.17
2019-04-22T22:22:46.591Z,3.50
2019-04-22T22:24:14.767Z,4.15
2019-04-22T22:25:43.739Z,4.58
2019-04-22T22:27:19.108Z,4.62
2019-04-22T22:28:57.160Z,4.08
2019-04-22T22:30:43.179Z,3.98
2019-04-22T22:32:05.338Z,4.42
2019-04-22T22:33:43.384Z,4.80
2019-04-22T22:35:16.488Z,4.28
2019-04-22T22:36:40.387Z,4.22
2019-04-22T22:38:18.115Z,4.78
2019-04-22T22:39:42.805Z,4.40